createdAt,value
2017-01-21T00:00:00.091Z,62.06
2017-01-21T00:01:00.061Z,62.06
2017-01-21T00:02:00.040Z,62.15
2017-01-21T00:03:00.020Z,62.25
2017-01-21T00:04:00.009Z,61.77
2017-01-21T00:05:00.008Z,61.77
2017-01-21T00:05:59.959Z,61.68
2017-01-21T00:06:59.947Z,61.77
2017-01-21T00:07:59.917Z,61.77
2017-01-21T00:08:59.894Z,61.77
2017-01-21T00:09:59.876Z,61.77
2017-01-21T00:10:59.867Z,61.87
2017-01-21T00:11:59.842Z,61.68
2017-01-21T00:12:59.819Z,61.58
2017-01-21T00:13:59.801Z,61.58
2017-01-21T00:14:59.780Z,61.68
2017-01-21T00:15:59.766Z,61.68
2017-01-21T00:16:59.735Z,61.68
2017-01-21T00:17:59.714Z,61.58
2017-01-21T00:18:59.696Z,61.3
2017-01-21T00:19:59.681Z,61.49
2017-01-21T00:20:59.660Z,61.3
2017-01-21T00:21:59.628Z,61.3
2017-01-21T00:22:59.610Z,61.21
2017-01-21T00:23:59.597Z,61.21
2017-01-21T00:24:59.574Z,61.21
2017-01-21T00:25:59.556Z,61.49
2017-01-21T00:26:59.527Z,61.49
2017-01-21T00:27:59.514Z,61.21
2017-01-21T00:28:59.490Z,61.4
2017-01-21T00:29:59.473Z,61.4
2017-01-21T00:30:59.447Z,61.4
2017-01-21T00:31:59.425Z,61.3
2017-01-21T00:32:59.413Z,61.58
2017-01-21T00:33:59.381Z,60.83
2017-01-21T00:34:59.365Z,61.21
2017-01-21T00:35:59.351Z,61.21
2017-01-21T00:36:59.332Z,61.21
2017-01-21T00:37:59.305Z,60.93
2017-01-21T00:38:59.285Z,60.55
2017-01-21T00:39:59.259Z,60.74
2017-01-21T00:40:59.236Z,60.64
2017-01-21T00:41:59.218Z,60.64
2017-01-21T00:42:59.194Z,60.46
2017-01-21T00:43:59.180Z,60.55
2017-01-21T00:44:59.163Z,60.93
2017-01-21T00:45:59.131Z,60.46
2017-01-21T00:46:59.114Z,60.55
2017-01-21T00:47:59.100Z,60.74
2017-01-21T00:48:59.072Z,60.46
2017-01-21T00:49:59.058Z,60.55
2017-01-21T00:50:59.031Z,59.99
2017-01-21T00:51:59.019Z,60.36
2017-01-21T00:52:58.994Z,60.17
2017-01-21T00:53:58.966Z,60.17
2017-01-21T00:54:58.948Z,60.08
2017-01-21T00:55:58.931Z,60.17
2017-01-21T00:56:58.907Z,60.08
2017-01-21T00:57:58.890Z,59.89
2017-01-21T00:58:58.860Z,59.8
2017-01-21T00:59:58.849Z,59.8
2017-01-21T01:00:58.818Z,59.99
2017-01-21T01:01:58.802Z,60.08
2017-01-21T01:02:58.784Z,60.17
2017-01-21T01:03:58.757Z,59.89
2017-01-21T01:04:58.735Z,60.08
2017-01-21T01:05:58.724Z,59.89
2017-01-21T01:06:58.700Z,59.7
2017-01-21T01:07:58.672Z,59.51
2017-01-21T01:08:58.654Z,59.61
2017-01-21T01:09:58.637Z,59.7
2017-01-21T01:10:58.616Z,59.61
2017-01-21T01:11:58.590Z,59.89
2017-01-21T01:12:58.574Z,59.61
2017-01-21T01:13:58.554Z,59.51
2017-01-21T01:14:58.527Z,59.23
2017-01-21T01:15:58.506Z,59.8
2017-01-21T01:16:58.495Z,59.42
2017-01-21T01:17:58.669Z,59.61
2017-01-21T01:18:58.449Z,59.42
2017-01-21T01:19:58.433Z,59.14
2017-01-21T01:20:58.403Z,59.33
2017-01-21T01:21:58.388Z,59.14
2017-01-21T01:22:58.365Z,59.14
2017-01-21T01:23:58.345Z,59.61
2017-01-21T01:24:58.327Z,59.61
2017-01-21T01:25:58.299Z,59.33
2017-01-21T01:26:58.286Z,59.23
2017-01-21T01:27:58.265Z,59.14
2017-01-21T01:28:58.240Z,59.23
2017-01-21T01:29:58.216Z,59.04
2017-01-21T01:30:58.200Z,59.04
2017-01-21T01:31:58.176Z,58.76
2017-01-21T01:32:58.160Z,58.95
2017-01-21T01:33:58.137Z,58.76
2017-01-21T01:34:58.117Z,58.85
2017-01-21T01:35:58.094Z,58.85
2017-01-21T01:36:58.082Z,58.95
2017-01-21T01:37:58.058Z,58.95
2017-01-21T01:38:58.038Z,58.76
2017-01-21T01:39:58.018Z,58.76
2017-01-21T01:40:57.993Z,58.66
2017-01-21T01:41:57.969Z,58.66
2017-01-21T01:42:57.959Z,58.76
2017-01-21T01:43:57.930Z,58.47
2017-01-21T01:44:57.913Z,58.29
2017-01-21T01:45:57.892Z,58.29
2017-01-21T01:46:57.873Z,58.38
2017-01-21T01:47:57.855Z,58.47
2017-01-21T01:48:57.830Z,58.19
2017-01-21T01:49:57.804Z,58.47
2017-01-21T01:50:57.787Z,58.57
2017-01-21T01:51:57.761Z,58.66
2017-01-21T01:52:57.747Z,58.29
2017-01-21T01:53:57.719Z,58.47
2017-01-21T01:54:57.700Z,58.47
2017-01-21T01:55:57.677Z,58.29
2017-01-21T01:56:57.657Z,58.29
2017-01-21T01:57:57.647Z,58.19
2017-01-21T01:58:57.620Z,58.1
2017-01-21T01:59:57.597Z,58.19
2017-01-21T02:00:57.579Z,58.38
2017-01-21T02:01:57.557Z,58.29
2017-01-21T02:02:57.535Z,58
2017-01-21T02:03:57.516Z,58
2017-01-21T02:04:57.499Z,58
2017-01-21T02:05:57.472Z,58
2017-01-21T02:06:57.456Z,58.19
2017-01-21T02:07:57.438Z,58.19
2017-01-21T02:08:57.419Z,57.72
2017-01-21T02:09:57.399Z,58
2017-01-21T02:10:57.379Z,57.72
2017-01-21T02:11:57.352Z,57.91
2017-01-21T02:12:57.522Z,57.81
2017-01-21T02:13:57.509Z,58
2017-01-21T02:14:57.299Z,57.81
2017-01-21T02:15:57.277Z,57.72
2017-01-21T02:16:57.249Z,57.72
2017-01-21T02:17:57.235Z,58
2017-01-21T02:18:57.210Z,57.81
2017-01-21T02:19:57.193Z,57.53
2017-01-21T02:20:57.164Z,57.43
2017-01-21T02:21:57.147Z,57.53
2017-01-21T02:22:57.122Z,57.81
2017-01-21T02:23:57.112Z,57.62
2017-01-21T02:24:57.087Z,57.91
2017-01-21T02:25:57.066Z,57.81
2017-01-21T02:26:57.052Z,57.43
2017-01-21T02:27:57.024Z,57.81
2017-01-21T02:28:56.999Z,57.43
2017-01-21T02:29:56.989Z,57.15
2017-01-21T02:30:56.967Z,57.34
2017-01-21T02:31:56.941Z,56.87
2017-01-21T02:32:56.922Z,56.87
2017-01-21T02:33:56.903Z,56.77
2017-01-21T02:34:56.882Z,56.96
2017-01-21T02:35:56.855Z,56.96
2017-01-21T02:36:56.837Z,57.06
2017-01-21T02:37:56.823Z,56.96
2017-01-21T02:38:56.795Z,57.15
2017-01-21T02:39:56.782Z,57.15
2017-01-21T02:40:56.751Z,57.25
2017-01-21T02:41:56.943Z,57.15
2017-01-21T02:42:56.708Z,56.87
2017-01-21T02:43:56.692Z,56.96
2017-01-21T02:44:56.678Z,57.25
2017-01-21T02:45:56.654Z,57.25
2017-01-21T02:46:56.632Z,56.87
2017-01-21T02:47:56.609Z,57.25
2017-01-21T02:48:56.595Z,56.87
2017-01-21T02:49:56.563Z,56.77
2017-01-21T02:50:56.548Z,56.77
2017-01-21T02:51:56.524Z,56.77
2017-01-21T02:52:56.515Z,56.77
2017-01-21T02:53:56.482Z,56.59
2017-01-21T02:54:56.463Z,56.4
2017-01-21T02:55:56.452Z,56.49
2017-01-21T02:56:56.425Z,56.4
2017-01-21T02:57:56.400Z,56.87
2017-01-21T02:58:56.406Z,56.49
2017-01-21T02:59:56.358Z,56.59
2017-01-21T03:00:56.344Z,56.59
2017-01-21T03:01:56.330Z,56.3
2017-01-21T03:02:56.297Z,56.21
2017-01-21T03:03:56.277Z,56.02
2017-01-21T03:04:56.257Z,56.21
2017-01-21T03:05:56.238Z,56.21
2017-01-21T03:06:56.226Z,56.4
2017-01-21T03:07:56.194Z,56.21
2017-01-21T03:08:56.184Z,56.3
2017-01-21T03:09:56.156Z,56.4
2017-01-21T03:10:56.135Z,55.93
2017-01-21T03:11:56.125Z,56.02
2017-01-21T03:12:56.111Z,56.02
2017-01-21T03:13:56.081Z,56.02
2017-01-21T03:14:56.063Z,56.12
2017-01-21T03:15:56.036Z,56.21
2017-01-21T03:16:56.015Z,55.74
2017-01-21T03:17:56.002Z,55.65
2017-01-21T03:18:55.979Z,55.93
2017-01-21T03:19:55.949Z,56.12
2017-01-21T03:20:55.937Z,56.02
2017-01-21T03:21:55.915Z,55.83
2017-01-21T03:22:55.895Z,55.65
2017-01-21T03:23:55.870Z,55.74
2017-01-21T03:24:55.848Z,55.65
2017-01-21T03:25:55.840Z,55.74
2017-01-21T03:26:55.808Z,55.46
2017-01-21T03:27:55.791Z,55.55
2017-01-21T03:28:55.773Z,55.36
2017-01-21T03:29:55.756Z,55.55
2017-01-21T03:30:55.736Z,55.27
2017-01-21T03:31:55.704Z,55.74
2017-01-21T03:32:55.694Z,55.83
2017-01-21T03:33:55.666Z,55.46
2017-01-21T03:34:55.651Z,55.46
2017-01-21T03:35:55.621Z,55.65
2017-01-21T03:36:55.603Z,55.55
2017-01-21T03:37:55.780Z,55.36
2017-01-21T03:38:55.779Z,55.36
2017-01-21T03:39:55.540Z,55.36
2017-01-21T03:40:55.530Z,55.36
2017-01-21T03:41:55.503Z,55.36
2017-01-21T03:42:55.484Z,55.46
2017-01-21T03:43:55.470Z,55.18
2017-01-21T03:44:55.440Z,55.36
2017-01-21T03:45:55.426Z,54.89
2017-01-21T03:46:55.405Z,54.89
2017-01-21T03:47:55.383Z,55.27
2017-01-21T03:48:55.359Z,55.36
2017-01-21T03:49:55.333Z,55.08
2017-01-21T03:50:55.314Z,55.18
2017-01-21T03:51:55.300Z,55.08
2017-01-21T03:52:55.278Z,55.18
2017-01-21T03:53:55.256Z,55.18
2017-01-21T03:54:55.239Z,55.18
2017-01-21T03:55:55.215Z,54.89
2017-01-21T03:56:55.194Z,54.7
2017-01-21T03:57:55.180Z,54.7
2017-01-21T03:58:55.161Z,54.61
2017-01-21T03:59:55.139Z,54.7
2017-01-21T04:00:55.110Z,54.42
2017-01-21T04:01:55.098Z,54.42
2017-01-21T04:02:55.075Z,54.42
2017-01-21T04:03:55.044Z,54.33
2017-01-21T04:04:55.025Z,54.33
2017-01-21T04:05:55.210Z,54.42
2017-01-21T04:06:54.985Z,54.42
2017-01-21T04:07:54.968Z,54.23
2017-01-21T04:08:54.946Z,54.04
2017-01-21T04:09:54.930Z,54.23
2017-01-21T04:10:54.912Z,53.95
2017-01-21T04:11:54.885Z,53.95
2017-01-21T04:12:54.859Z,54.04
2017-01-21T04:13:54.846Z,54.23
2017-01-21T04:14:54.819Z,54.14
2017-01-21T04:15:54.804Z,54.14
2017-01-21T04:16:54.777Z,54.14
2017-01-21T04:17:54.763Z,54.04
2017-01-21T04:18:54.733Z,54.14
2017-01-21T04:19:54.714Z,54.14
2017-01-21T04:20:54.702Z,53.95
2017-01-21T04:21:54.677Z,54.04
2017-01-21T04:22:54.647Z,54.04
2017-01-21T04:23:54.636Z,54.14
2017-01-21T04:24:54.606Z,54.14
2017-01-21T04:25:54.594Z,54.14
2017-01-21T04:26:54.567Z,54.14
2017-01-21T04:27:54.544Z,53.66
2017-01-21T04:28:54.527Z,53.76
2017-01-21T04:29:54.501Z,53.85
2017-01-21T04:30:54.487Z,53.95
2017-01-21T04:31:54.464Z,53.85
2017-01-21T04:32:54.442Z,53.76
2017-01-21T04:33:54.422Z,53.85
2017-01-21T04:34:54.399Z,53.38
2017-01-21T04:35:54.377Z,53.38
2017-01-21T04:36:54.366Z,53.47
2017-01-21T04:37:54.338Z,53.38
2017-01-21T04:38:54.320Z,53.19
2017-01-21T04:39:54.303Z,53
2017-01-21T04:40:54.283Z,53.1
2017-01-21T04:41:54.256Z,53.19
2017-01-21T04:42:54.238Z,53.29
2017-01-21T04:43:54.210Z,53
2017-01-21T04:44:54.199Z,53.29
2017-01-21T04:45:54.183Z,53.1
2017-01-21T04:46:54.160Z,53.1
2017-01-21T04:47:54.134Z,53.1
2017-01-21T04:48:54.108Z,53.1
2017-01-21T04:49:54.092Z,52.81
2017-01-21T04:50:54.068Z,52.91
2017-01-21T04:51:54.046Z,52.91
2017-01-21T04:52:54.035Z,52.62
2017-01-21T04:53:54.016Z,53
2017-01-21T04:54:53.988Z,53
2017-01-21T04:55:53.970Z,52.81
2017-01-21T04:56:53.954Z,53.1
2017-01-21T04:57:53.925Z,52.44
2017-01-21T04:58:53.911Z,52.44
2017-01-21T04:59:53.882Z,52.62
2017-01-21T05:00:53.862Z,52.91
2017-01-21T05:01:53.849Z,52.34
2017-01-21T05:02:53.832Z,52.53
2017-01-21T05:03:53.800Z,52.25
2017-01-21T05:04:53.787Z,52.34
2017-01-21T05:05:53.766Z,52.34
2017-01-21T05:06:53.745Z,52.44
2017-01-21T05:07:53.728Z,52.06
2017-01-21T05:08:53.706Z,52.25
2017-01-21T05:09:53.680Z,52.25
2017-01-21T05:10:53.662Z,52.06
2017-01-21T05:11:53.647Z,52.06
2017-01-21T05:12:53.622Z,52.15
2017-01-21T05:13:53.604Z,52.25
2017-01-21T05:14:53.575Z,52.15
2017-01-21T05:15:53.563Z,51.97
2017-01-21T05:16:53.532Z,51.97
2017-01-21T05:17:53.523Z,51.59
2017-01-21T05:18:53.504Z,51.78
2017-01-21T05:19:53.473Z,51.97
2017-01-21T05:20:53.463Z,51.87
2017-01-21T05:21:53.438Z,51.87
2017-01-21T05:22:53.415Z,52.06
2017-01-21T05:23:53.399Z,52.06
2017-01-21T05:24:53.379Z,52.15
2017-01-21T05:25:53.357Z,51.5
2017-01-21T05:26:53.342Z,51.97
2017-01-21T05:27:53.321Z,51.5
2017-01-21T05:28:53.294Z,51.68
2017-01-21T05:29:53.281Z,51.5
2017-01-21T05:30:53.261Z,51.4
2017-01-21T05:31:53.237Z,51.5
2017-01-21T05:32:53.221Z,51.59
2017-01-21T05:33:53.213Z,51.97
2017-01-21T05:34:53.173Z,51.59
2017-01-21T05:35:53.150Z,51.68
2017-01-21T05:36:53.135Z,51.68
2017-01-21T05:37:53.142Z,51.59
2017-01-21T05:38:53.088Z,51.59
2017-01-21T05:39:53.075Z,51.68
2017-01-21T05:40:53.058Z,51.68
2017-01-21T05:41:53.032Z,51.5
2017-01-21T05:42:53.007Z,51.59
2017-01-21T05:43:52.994Z,51.21
2017-01-21T05:44:52.970Z,51.31
2017-01-21T05:45:52.954Z,51.12
2017-01-21T05:46:52.937Z,51.12
2017-01-21T05:47:52.910Z,51.21
2017-01-21T05:48:52.895Z,50.93
2017-01-21T05:49:52.869Z,50.93
2017-01-21T05:50:52.846Z,50.84
2017-01-21T05:51:52.836Z,50.84
2017-01-21T05:52:52.817Z,51.31
2017-01-21T05:53:52.788Z,50.93
2017-01-21T05:54:52.767Z,50.84
2017-01-21T05:55:52.748Z,50.84
2017-01-21T05:56:52.727Z,50.93
2017-01-21T05:57:52.709Z,51.03
2017-01-21T05:58:52.690Z,50.84
2017-01-21T05:59:52.661Z,50.93
2017-01-21T06:00:52.642Z,51.03
2017-01-21T06:01:52.629Z,51.31
2017-01-21T06:02:52.632Z,51.21
2017-01-21T06:03:52.581Z,51.21
2017-01-21T06:04:52.561Z,51.21
2017-01-21T06:05:52.543Z,51.21
2017-01-21T06:06:52.526Z,51.31
2017-01-21T06:07:52.898Z,51.21
2017-01-21T06:08:52.480Z,51.03
2017-01-21T06:09:52.462Z,51.12
2017-01-21T06:10:52.448Z,51.03
2017-01-21T06:11:52.428Z,51.31
2017-01-21T06:12:52.396Z,51.31
2017-01-21T06:13:52.385Z,51.21
2017-01-21T06:14:52.357Z,51.21
2017-01-21T06:15:52.348Z,51.21
2017-01-21T06:16:52.328Z,51.21
2017-01-21T06:17:52.303Z,51.21
2017-01-21T06:18:52.278Z,51.31
2017-01-21T06:19:52.271Z,51.12
2017-01-21T06:20:52.237Z,50.93
2017-01-21T06:21:52.220Z,50.84
2017-01-21T06:22:52.202Z,50.84
2017-01-21T06:23:52.179Z,50.74
2017-01-21T06:24:52.163Z,50.74
2017-01-21T06:25:52.140Z,50.65
2017-01-21T06:26:52.121Z,50.55
2017-01-21T06:27:52.096Z,50.65
2017-01-21T06:28:52.082Z,50.55
2017-01-21T06:29:52.059Z,50.74
2017-01-21T06:30:52.064Z,50.55
2017-01-21T06:31:52.019Z,50.74
2017-01-21T06:32:52.000Z,50.55
2017-01-21T06:33:51.968Z,50.74
2017-01-21T06:34:51.955Z,50.55
2017-01-21T06:35:51.938Z,50.65
2017-01-21T06:36:51.911Z,50.46
2017-01-21T06:37:51.888Z,50.84
2017-01-21T06:38:51.873Z,50.65
2017-01-21T06:39:51.850Z,50.74
2017-01-21T06:40:51.835Z,50.65
2017-01-21T06:41:51.806Z,50.55
2017-01-21T06:42:51.790Z,50.55
2017-01-21T06:43:51.775Z,50.46
2017-01-21T06:44:51.746Z,50.55
2017-01-21T06:45:51.730Z,50.55
2017-01-21T06:46:51.706Z,50.55
2017-01-21T06:47:51.686Z,50.55
2017-01-21T06:48:51.661Z,50.46
2017-01-21T06:49:51.653Z,50.55
2017-01-21T06:50:51.621Z,50.65
2017-01-21T06:51:51.611Z,50.55
2017-01-21T06:52:51.586Z,50.65
2017-01-21T06:53:51.558Z,50.65
2017-01-21T06:54:51.544Z,50.55
2017-01-21T06:55:51.524Z,50.55
2017-01-21T06:56:51.498Z,50.46
2017-01-21T06:57:51.477Z,50.46
2017-01-21T06:58:51.464Z,50.36
2017-01-21T06:59:51.440Z,50.36
2017-01-21T07:00:51.411Z,50.46
2017-01-21T07:01:51.780Z,50.27
2017-01-21T07:02:51.372Z,50.55
2017-01-21T07:03:51.362Z,50.55
2017-01-21T07:04:51.340Z,50.46
2017-01-21T07:05:51.321Z,50.58
2017-01-21T07:06:51.294Z,50.48
2017-01-21T07:07:51.271Z,50.58
2017-01-21T07:08:51.253Z,50.58
2017-01-21T07:09:51.234Z,50.58
2017-01-21T07:10:51.217Z,50.67
2017-01-21T07:11:51.204Z,50.58
2017-01-21T07:12:51.173Z,50.67
2017-01-21T07:13:51.158Z,50.67
2017-01-21T07:14:51.134Z,50.76
2017-01-21T07:15:51.117Z,50.67
2017-01-21T07:16:51.104Z,50.76
2017-01-21T07:17:51.081Z,50.67
2017-01-21T07:18:51.060Z,50.67
2017-01-21T07:19:51.041Z,50.79
2017-01-21T07:20:51.021Z,50.89
2017-01-21T07:21:51.004Z,50.79
2017-01-21T07:22:50.985Z,50.98
2017-01-21T07:23:50.966Z,51.17
2017-01-21T07:24:50.947Z,51.36
2017-01-21T07:25:50.928Z,51.17
2017-01-21T07:26:50.904Z,51.17
2017-01-21T07:27:50.885Z,51.36
2017-01-21T07:28:50.870Z,51.17
2017-01-21T07:29:50.849Z,51.17
2017-01-21T07:30:50.833Z,51.07
2017-01-21T07:31:50.825Z,50.98
2017-01-21T07:32:50.805Z,51.17
2017-01-21T07:33:50.782Z,51.26
2017-01-21T07:34:50.765Z,51.26
2017-01-21T07:35:50.754Z,51.17
2017-01-21T07:36:50.729Z,51.17
2017-01-21T07:37:50.713Z,50.98
2017-01-21T07:38:50.691Z,50.91
2017-01-21T07:39:50.681Z,51.39
2017-01-21T07:40:50.663Z,51.29
2017-01-21T07:41:50.636Z,51.39
2017-01-21T07:42:50.625Z,51.5
2017-01-21T07:43:50.608Z,51.6
2017-01-21T07:44:50.587Z,51.79
2017-01-21T07:45:50.568Z,51.69
2017-01-21T07:46:50.552Z,51.5
2017-01-21T07:47:50.544Z,51.62
2017-01-21T07:48:50.531Z,51.81
2017-01-21T07:49:50.503Z,51.72
2017-01-21T07:50:50.491Z,51.91
2017-01-21T07:51:50.480Z,51.5
2017-01-21T07:52:50.460Z,51.6
2017-01-21T07:53:50.447Z,51.69
2017-01-21T07:54:50.426Z,51.88
2017-01-21T07:55:50.413Z,52.26
2017-01-21T07:56:50.398Z,51.62
2017-01-21T07:57:50.380Z,52.29
2017-01-21T07:58:50.363Z,51.91
2017-01-21T07:59:50.349Z,52.19
2017-01-21T08:00:50.332Z,52.22
2017-01-21T08:01:50.341Z,52.12
2017-01-21T08:02:50.299Z,52.41
2017-01-21T08:03:50.290Z,52.6
2017-01-21T08:04:50.270Z,52.34
2017-01-21T08:05:50.252Z,52.62
2017-01-21T08:06:50.236Z,52.72
2017-01-21T08:07:50.231Z,52.72
2017-01-21T08:08:50.209Z,53.19
2017-01-21T08:09:50.190Z,52.75
2017-01-21T08:10:50.189Z,53.03
2017-01-21T08:11:50.171Z,53.13
2017-01-21T08:12:50.153Z,52.84
2017-01-21T08:13:50.147Z,52.65
2017-01-21T08:14:50.127Z,52.94
2017-01-21T08:15:50.108Z,53.13
2017-01-21T08:16:50.096Z,52.84
2017-01-21T08:17:50.085Z,53.03
2017-01-21T08:18:50.072Z,52.84
2017-01-21T08:19:50.055Z,53.25
2017-01-21T08:20:50.042Z,53.25
2017-01-21T08:21:50.030Z,53.34
2017-01-21T08:22:50.013Z,52.87
2017-01-21T08:23:50.023Z,53.25
2017-01-21T08:24:49.985Z,52.75
2017-01-21T08:25:49.975Z,52.75
2017-01-21T08:26:49.969Z,52.75
2017-01-21T08:27:49.954Z,52.29
2017-01-21T08:28:49.944Z,52.34
2017-01-21T08:29:49.929Z,52.53
2017-01-21T08:30:49.917Z,52.34
2017-01-21T08:31:49.901Z,52.62
2017-01-21T08:32:50.281Z,52.65
2017-01-21T08:33:49.876Z,52.46
2017-01-21T08:34:49.869Z,52.27
2017-01-21T08:35:49.843Z,52.46
2017-01-21T08:36:49.832Z,52.18
2017-01-21T08:37:49.815Z,52.27
2017-01-21T08:38:49.805Z,52.65
2017-01-21T08:39:49.799Z,52.27
2017-01-21T08:40:49.786Z,52.56
2017-01-21T08:41:49.800Z,52.65
2017-01-21T08:42:49.751Z,53.25
2017-01-21T08:43:49.736Z,53.15
2017-01-21T08:44:49.727Z,53.08
2017-01-21T08:45:49.709Z,53.37
2017-01-21T08:46:49.697Z,53.18
2017-01-21T08:47:49.685Z,53.11
2017-01-21T08:48:49.681Z,52.92
2017-01-21T08:49:49.659Z,52.92
2017-01-21T08:50:49.659Z,53.49
2017-01-21T08:51:49.636Z,53.52
2017-01-21T08:52:49.622Z,53.52
2017-01-21T08:53:49.615Z,53.64
2017-01-21T08:54:49.601Z,53.42
2017-01-21T08:55:49.596Z,53.23
2017-01-21T08:56:49.584Z,53.52
2017-01-21T08:57:49.566Z,53.14
2017-01-21T08:58:49.562Z,53.14
2017-01-21T08:59:49.552Z,52.01
2017-01-21T09:00:49.540Z,51.77
2017-01-21T09:01:49.536Z,51.77
2017-01-21T09:02:49.510Z,51.56
2017-01-21T09:03:49.498Z,51.93
2017-01-21T09:04:49.489Z,51.37
2017-01-21T09:05:49.474Z,51.56
2017-01-21T09:06:49.470Z,51.37
2017-01-21T09:07:49.456Z,51.25
2017-01-21T09:08:49.441Z,51.53
2017-01-21T09:09:49.420Z,51.37
2017-01-21T09:10:49.412Z,51.34
2017-01-21T09:11:49.392Z,51.43
2017-01-21T09:12:49.391Z,51.84
2017-01-21T09:13:49.365Z,51.37
2017-01-21T09:14:49.358Z,51.25
2017-01-21T09:15:49.345Z,51.34
2017-01-21T09:16:49.322Z,51.72
2017-01-21T09:17:49.309Z,51.65
2017-01-21T09:18:49.301Z,51.68
2017-01-21T09:19:49.286Z,52.15
2017-01-21T09:20:49.268Z,52.34
2017-01-21T09:21:49.258Z,52.34
2017-01-21T09:22:49.245Z,52.06
2017-01-21T09:23:49.225Z,51.87
2017-01-21T09:24:49.221Z,51.84
2017-01-21T09:25:49.199Z,51.77
2017-01-21T09:26:49.183Z,52.15
2017-01-21T09:27:49.172Z,52.27
2017-01-21T09:28:49.159Z,52.27
2017-01-21T09:29:49.142Z,52.48
2017-01-21T09:30:49.130Z,52.58
2017-01-21T09:31:49.126Z,52.48
2017-01-21T09:32:49.109Z,52.42
2017-01-21T09:33:49.092Z,52.33
2017-01-21T09:34:49.086Z,52.23
2017-01-21T09:35:49.067Z,52.42
2017-01-21T09:36:49.057Z,52.51
2017-01-21T09:37:49.042Z,52.45
2017-01-21T09:38:49.036Z,52.64
2017-01-21T09:39:49.015Z,52.64
2017-01-21T09:40:49.013Z,52.47
2017-01-21T09:41:48.995Z,52.85
2017-01-21T09:42:48.981Z,52.66
2017-01-21T09:43:48.975Z,53.33
2017-01-21T09:44:48.969Z,52.87
2017-01-21T09:45:48.950Z,52.91
2017-01-21T09:46:48.965Z,52.91
2017-01-21T09:47:48.934Z,53.28
2017-01-21T09:48:48.922Z,52.87
2017-01-21T09:49:48.910Z,53.35
2017-01-21T09:50:48.904Z,52.69
2017-01-21T09:51:48.886Z,52.78
2017-01-21T09:52:48.882Z,52.78
2017-01-21T09:53:48.864Z,52.56
2017-01-21T09:54:48.859Z,52.28
2017-01-21T09:55:48.841Z,52.37
2017-01-21T09:56:48.836Z,52.37
2017-01-21T09:57:48.831Z,52.47
2017-01-21T09:58:48.819Z,52.37
2017-01-21T09:59:48.809Z,52.59
2017-01-21T10:00:48.792Z,52.69
2017-01-21T10:01:48.782Z,52.5
2017-01-21T10:02:48.771Z,52.69
2017-01-21T10:03:48.769Z,52.69
2017-01-21T10:04:48.747Z,52.69
2017-01-21T10:05:48.741Z,52.69
2017-01-21T10:06:48.738Z,52.87
2017-01-21T10:07:48.728Z,52.69
2017-01-21T10:08:48.708Z,52.78
2017-01-21T10:09:48.708Z,52.56
2017-01-21T10:10:48.698Z,52.37
2017-01-21T10:11:48.683Z,52.26
2017-01-21T10:12:48.669Z,51.87
2017-01-21T10:13:48.672Z,52.16
2017-01-21T10:14:48.653Z,52.26
2017-01-21T10:15:48.645Z,52.19
2017-01-21T10:16:48.632Z,52.28
2017-01-21T10:17:48.617Z,52.45
2017-01-21T10:18:48.608Z,51.78
2017-01-21T10:19:48.614Z,51.97
2017-01-21T10:20:48.589Z,52.06
2017-01-21T10:21:48.582Z,52.26
2017-01-21T10:22:48.581Z,52.09
2017-01-21T10:23:48.568Z,52.47
2017-01-21T10:24:48.551Z,52.5
2017-01-21T10:25:48.547Z,51.93
2017-01-21T10:26:48.529Z,51.93
2017-01-21T10:27:48.519Z,52.31
2017-01-21T10:28:48.511Z,52.53
2017-01-21T10:29:48.504Z,52.43
2017-01-21T10:30:48.490Z,52.62
2017-01-21T10:31:48.475Z,52.62
2017-01-21T10:32:48.473Z,52.33
2017-01-21T10:33:48.455Z,52.43
2017-01-21T10:34:48.448Z,52.33
2017-01-21T10:35:48.443Z,52.33
2017-01-21T10:36:48.424Z,52.36
2017-01-21T10:37:48.420Z,52.62
2017-01-21T10:38:48.406Z,52.24
2017-01-21T10:39:48.403Z,52.43
2017-01-21T10:40:48.383Z,52.62
2017-01-21T10:41:48.384Z,52.14
2017-01-21T10:42:48.367Z,52.5
2017-01-21T10:43:48.355Z,52.4
2017-01-21T10:44:48.350Z,52.22
2017-01-21T10:45:48.346Z,52.05
2017-01-21T10:46:48.326Z,52.24
2017-01-21T10:47:48.316Z,52.33
2017-01-21T10:48:48.316Z,52.05
2017-01-21T10:49:48.301Z,52.53
2017-01-21T10:50:48.288Z,51.76
2017-01-21T10:51:48.286Z,51.93
2017-01-21T10:52:48.272Z,51.81
2017-01-21T10:53:48.263Z,52
2017-01-21T10:54:48.252Z,51.64
2017-01-21T10:55:48.244Z,51.62
2017-01-21T10:56:48.231Z,51.52
2017-01-21T10:57:48.226Z,51.55
2017-01-21T10:58:48.223Z,51.62
2017-01-21T10:59:48.208Z,51.55
2017-01-21T11:00:48.192Z,51.64
2017-01-21T11:01:48.193Z,51.17
2017-01-21T11:02:48.181Z,50.95
2017-01-21T11:03:48.168Z,51.03
2017-01-21T11:04:48.165Z,51.59
2017-01-21T11:05:48.146Z,51.24
2017-01-21T11:06:48.144Z,51.36
2017-01-21T11:07:48.136Z,51.45
2017-01-21T11:08:48.116Z,51.17
2017-01-21T11:09:48.107Z,51.43
2017-01-21T11:10:48.103Z,51.45
2017-01-21T11:11:48.086Z,51.45
2017-01-21T11:12:48.083Z,51.17
2017-01-21T11:13:48.077Z,51.17
2017-01-21T11:14:48.062Z,50.89
2017-01-21T11:15:48.054Z,50.83
2017-01-21T11:16:48.037Z,50.83
2017-01-21T11:17:48.035Z,50.67
2017-01-21T11:18:48.029Z,49.67
2017-01-21T11:19:48.010Z,49.71
2017-01-21T11:20:47.996Z,49.12
2017-01-21T11:21:47.996Z,49.1
2017-01-21T11:22:47.974Z,48.91
2017-01-21T11:23:47.965Z,48.69
2017-01-21T11:24:47.963Z,48.67
2017-01-21T11:25:47.947Z,48.67
2017-01-21T11:26:47.936Z,48.79
2017-01-21T11:27:47.914Z,48.97
2017-01-21T11:28:47.904Z,48.91
2017-01-21T11:29:47.889Z,49.01
2017-01-21T11:30:47.879Z,49.01
2017-01-21T11:31:47.875Z,49.31
2017-01-21T11:32:47.856Z,49.55
2017-01-21T11:33:47.844Z,49.74
2017-01-21T11:34:47.831Z,49.95
2017-01-21T11:35:47.811Z,50.17
2017-01-21T11:36:47.808Z,50.1
2017-01-21T11:37:47.790Z,50.6
2017-01-21T11:38:47.786Z,50.6
2017-01-21T11:39:47.775Z,50.72
2017-01-21T11:40:47.765Z,50.43
2017-01-21T11:41:47.751Z,50.43
2017-01-21T11:42:47.731Z,50.43
2017-01-21T11:43:47.732Z,50.43
2017-01-21T11:44:47.710Z,50.53
2017-01-21T11:45:47.710Z,50.34
2017-01-21T11:46:47.695Z,50.22
2017-01-21T11:47:47.688Z,50.03
2017-01-21T11:48:47.670Z,50.1
2017-01-21T11:49:47.667Z,50.1
2017-01-21T11:50:47.653Z,50.01
2017-01-21T11:51:47.639Z,49.82
2017-01-21T11:52:47.625Z,49.93
2017-01-21T11:53:47.620Z,49.93
2017-01-21T11:54:47.607Z,50.41
2017-01-21T11:55:47.601Z,50.34
2017-01-21T11:56:47.596Z,50.43
2017-01-21T11:57:47.575Z,50.27
2017-01-21T11:58:47.573Z,50.27
2017-01-21T11:59:47.556Z,50.08
2017-01-21T12:00:47.549Z,50.46
2017-01-21T12:01:47.535Z,50.68
2017-01-21T12:02:47.530Z,50.68
2017-01-21T12:03:47.516Z,50.6
2017-01-21T12:04:47.504Z,50.6
2017-01-21T12:05:47.495Z,50.58
2017-01-21T12:06:47.487Z,50.68
2017-01-21T12:07:47.475Z,50.7
2017-01-21T12:08:47.464Z,50.79
2017-01-21T12:09:47.463Z,50.29
2017-01-21T12:10:47.443Z,50.34
2017-01-21T12:11:47.432Z,50.24
2017-01-21T12:12:47.428Z,50.34
2017-01-21T12:13:47.419Z,49.87
2017-01-21T12:14:47.405Z,49.24
2017-01-21T12:15:47.401Z,49.1
2017-01-21T12:16:47.390Z,49.13
2017-01-21T12:17:47.385Z,49.32
2017-01-21T12:18:47.374Z,48.94
2017-01-21T12:19:47.362Z,49.03
2017-01-21T12:20:47.348Z,49.13
2017-01-21T12:21:47.345Z,48.44
2017-01-21T12:22:47.336Z,48.41
2017-01-21T12:23:47.324Z,48.79
2017-01-21T12:24:47.305Z,48.82
2017-01-21T12:25:47.297Z,48.75
2017-01-21T12:26:47.296Z,48.34
2017-01-21T12:27:47.279Z,48.25
2017-01-21T12:28:47.267Z,47.96
2017-01-21T12:29:47.256Z,48.25
2017-01-21T12:30:47.245Z,48.44
2017-01-21T12:31:47.245Z,48.46
2017-01-21T12:32:47.219Z,48.86
2017-01-21T12:33:47.209Z,48.89
2017-01-21T12:34:47.196Z,48.51
2017-01-21T12:35:47.188Z,48.39
2017-01-21T12:36:47.183Z,48.39
2017-01-21T12:37:47.174Z,48.39
2017-01-21T12:38:47.162Z,48.51
2017-01-21T12:39:47.143Z,48.51
2017-01-21T12:40:47.135Z,48.2
2017-01-21T12:41:47.127Z,48.18
2017-01-21T12:42:47.111Z,48.2
2017-01-21T12:43:47.103Z,48.49
2017-01-21T12:44:47.099Z,48.89
2017-01-21T12:45:47.080Z,48.54
2017-01-21T12:46:47.070Z,48.06
2017-01-21T12:47:47.065Z,47.73
2017-01-21T12:48:47.049Z,47.96
2017-01-21T12:49:47.043Z,48.08
2017-01-21T12:50:47.036Z,48.01
2017-01-21T12:51:47.017Z,48.2
2017-01-21T12:52:47.009Z,48.13
2017-01-21T12:53:47.006Z,47.47
2017-01-21T12:54:47.033Z,47.71